Time;durP1;ratioP1;P1;durP2;ratioP2;P2;SDS_P1;SDS_P2;PMS_P1;PMS_P2;Temp;Humidity;BMP_temperature;BMP_pressure;BME280_temperature;BME280_humidity;BME280_pressure;Samples;Min_cycle;Max_cycle;Signal;HPM_P1;HPM_P2
2022/07/08 00:00:45;;;;;;;8.77;1.90;;;;;;;15.81;92.54;101687.69;5073367;28;20887;-68
2022/07/08 00:03:14;;;;;;;3.60;1.57;;;;;;;15.72;93.27;101687.63;5073618;28;20454;-69
2022/07/08 00:05:41;;;;;;;2.83;1.53;;;;;;;15.66;94.30;101685.31;5073305;28;20449;-70
2022/07/08 00:08:07;;;;;;;4.43;1.17;;;;;;;15.66;94.39;101691.56;5073417;28;20943;-69
2022/07/08 00:10:34;;;;;;;4.13;1.37;;;;;;;15.63;94.38;101689.44;5073572;28;20528;-68
2022/07/08 00:13:00;;;;;;;4.10;1.13;;;;;;;15.58;94.20;101695.00;5073352;28;20560;-69
2022/07/08 00:15:27;;;;;;;2.87;1.13;;;;;;;15.52;94.38;101693.50;5073642;28;20489;-70
2022/07/08 00:17:54;;;;;;;4.67;1.70;;;;;;;15.51;94.74;101692.69;5073492;28;20441;-69
2022/07/08 00:20:22;;;;;;;3.60;1.50;;;;;;;15.47;96.16;101690.91;5073227;28;21054;-69
2022/07/08 00:22:48;;;;;;;4.53;1.50;;;;;;;15.46;95.64;101692.00;5073295;28;20532;-69
2022/07/08 00:25:15;;;;;;;3.57;1.50;;;;;;;15.42;96.08;101701.94;5073410;28;20440;-69
2022/07/08 00:27:42;;;;;;;2.70;1.43;;;;;;;15.40;95.95;101696.75;5073351;28;20531;-68
2022/07/08 00:30:10;;;;;;;2.43;1.23;;;;;;;15.35;96.25;101705.88;5073324;28;20453;-68
2022/07/08 00:32:36;;;;;;;6.20;1.77;;;;;;;15.28;96.83;101700.03;5073013;28;20573;-69
2022/07/08 00:35:04;;;;;;;1.63;1.33;;;;;;;15.36;96.05;101706.66;5073201;28;20448;-68
2022/07/08 00:37:32;;;;;;;4.10;1.43;;;;;;;15.27;97.15;101703.88;5073162;28;20449;-69
2022/07/08 00:39:58;;;;;;;15.70;2.00;;;;;;;15.26;98.15;101699.50;5072385;28;20448;-68
2022/07/08 00:42:25;;;;;;;4.40;1.50;;;;;;;15.23;97.72;101704.75;5073117;28;20521;-69
2022/07/08 00:44:52;;;;;;;6.97;1.80;;;;;;;15.26;96.82;101712.34;5072696;28;20544;-68
2022/07/08 00:47:19;;;;;;;8.47;1.73;;;;;;;15.21;96.92;101715.19;5073020;28;20551;-68
2022/07/08 00:49:45;;;;;;;6.90;1.67;;;;;;;15.20;97.15;101708.94;5072859;28;20961;-69
2022/07/08 00:52:12;;;;;;;5.50;2.13;;;;;;;15.20;97.80;101716.31;5072632;28;21026;-67
2022/07/08 00:54:40;;;;;;;10.47;2.67;;;;;;;15.21;97.85;101715.19;5072999;28;20473;-68
2022/07/08 00:57:07;;;;;;;2.30;1.10;;;;;;;15.16;97.98;101718.03;5073112;28;20467;-67
2022/07/08 00:59:34;;;;;;;3.23;1.53;;;;;;;15.19;97.75;101718.22;5072664;28;20472;-69
2022/07/08 01:02:00;;;;;;;4.40;1.87;;;;;;;15.18;97.89;101722.06;5072616;28;20445;-69
2022/07/08 01:04:27;;;;;;;4.50;1.30;;;;;;;15.16;97.58;101734.41;5072688;28;20907;-69
2022/07/08 01:06:53;;;;;;;6.53;1.20;;;;;;;15.13;97.96;101735.81;5072906;28;20528;-68
2022/07/08 01:09:20;;;;;;;3.10;1.40;;;;;;;15.05;98.48;101739.25;5072590;28;20466;-68
2022/07/08 01:11:48;;;;;;;10.47;1.93;;;;;;;15.06;99.15;101741.69;5072978;28;20452;-69
2022/07/08 01:14:16;;;;;;;4.70;1.40;;;;;;;15.08;99.41;101738.66;5072761;28;20940;-69
2022/07/08 01:16:44;;;;;;;3.07;1.60;;;;;;;15.05;99.20;101744.69;5072584;28;20446;-69
2022/07/08 01:19:10;;;;;;;4.77;1.80;;;;;;;15.04;99.61;101737.63;5072786;28;20516;-69
2022/07/08 01:21:38;;;;;;;6.30;1.77;;;;;;;15.08;99.33;101735.91;5072857;28;20616;-69
2022/07/08 01:24:05;;;;;;;5.57;1.93;;;;;;;15.15;99.36;101739.06;5072394;28;20545;-69
2022/07/08 01:26:32;;;;;;;5.60;1.83;;;;;;;15.20;99.54;101741.69;5072854;28;20548;-69
2022/07/08 01:28:58;;;;;;;6.53;2.00;;;;;;;15.21;99.85;101745.22;5072358;28;20452;-69
2022/07/08 01:31:25;;;;;;;5.60;1.77;;;;;;;15.29;99.76;101742.59;5072697;28;20473;-69
2022/07/08 01:33:52;;;;;;;10.00;2.47;;;;;;;15.33;98.96;101740.88;5072165;28;20537;-68
2022/07/08 01:36:18;;;;;;;2.93;1.70;;;;;;;15.36;99.50;101740.28;5072429;28;21005;-68
2022/07/08 01:38:46;;;;;;;1.90;1.10;;;;;;;15.38;99.14;101746.22;5072591;28;20469;-69
2022/07/08 01:41:13;;;;;;;3.70;2.10;;;;;;;15.40;99.42;101748.63;5072290;28;20525;-68
2022/07/08 01:43:39;;;;;;;7.60;1.80;;;;;;;15.47;99.12;101751.78;5072316;28;20493;-68
2022/07/08 01:46:06;;;;;;;12.50;2.07;;;;;;;15.51;98.70;101755.50;5072493;28;20444;-69
2022/07/08 01:48:32;;;;;;;9.03;2.13;;;;;;;15.49;99.14;101757.72;5072361;28;20441;-68
2022/07/08 01:50:59;;;;;;;3.70;2.00;;;;;;;15.47;100.00;101756.44;5073339;28;20532;-68
2022/07/08 01:53:26;;;;;;;8.00;1.60;;;;;;;15.42;99.99;101762.00;5076012;28;20485;-69
2022/07/08 01:55:54;;;;;;;4.83;2.23;;;;;;;15.46;100.00;101757.56;5076136;28;20473;-68
2022/07/08 01:58:21;;;;;;;7.77;2.00;;;;;;;15.37;100.00;101757.44;5076032;28;20445;-68
2022/07/08 02:00:47;;;;;;;2.10;1.40;;;;;;;15.42;100.00;101759.28;5075991;28;20449;-68
2022/07/08 02:03:14;;;;;;;6.93;1.63;;;;;;;15.46;100.00;101755.63;5075902;28;20536;-69
2022/07/08 02:05:41;;;;;;;8.63;2.13;;;;;;;15.45;100.00;101756.75;5075917;28;20522;-68
2022/07/08 02:08:07;;;;;;;4.00;1.73;;;;;;;15.38;100.00;101754.41;5075870;28;20464;-69
2022/07/08 02:13:16;;;;;;;8.83;1.80;;;;;;;15.36;100.00;101762.09;5074232;28;20542;-68
2022/07/08 02:15:43;;;;;;;5.40;1.67;;;;;;;15.36;100.00;101762.09;5075700;28;20445;-69
2022/07/08 02:18:10;;;;;;;2.60;1.70;;;;;;;15.34;100.00;101758.06;5075501;28;21018;-71
2022/07/08 02:20:36;;;;;;;7.10;1.70;;;;;;;15.35;100.00;101771.38;5075298;28;20805;-69
2022/07/08 02:23:03;;;;;;;7.27;2.47;;;;;;;15.37;100.00;101762.91;5075172;28;20489;-70
2022/07/08 02:25:30;;;;;;;2.50;1.30;;;;;;;15.42;100.00;101770.19;5075147;28;20441;-70
2022/07/08 02:27:56;;;;;;;10.60;2.70;;;;;;;15.38;100.00;101765.34;5075597;28;20527;-69
2022/07/08 02:30:24;;;;;;;19.07;2.00;;;;;;;15.44;100.00;101778.88;5075361;28;20536;-69
2022/07/08 02:32:51;;;;;;;7.20;1.80;;;;;;;15.47;100.00;101778.28;5075113;28;20492;-70
2022/07/08 02:35:18;;;;;;;10.80;1.80;;;;;;;15.46;100.00;101776.66;5075392;28;20509;-69
2022/07/08 02:37:44;;;;;;;5.10;2.07;;;;;;;15.45;100.00;101788.69;5075323;28;20524;-70
2022/07/08 02:40:11;;;;;;;4.83;1.20;;;;;;;15.41;100.00;101787.69;5075245;28;20453;-69
2022/07/08 02:42:38;;;;;;;5.07;2.30;;;;;;;15.36;100.00;101789.41;5075053;28;20437;-71
2022/07/08 02:45:06;;;;;;;7.80;2.50;;;;;;;15.32;100.00;101798.50;5075204;28;20536;-70
2022/07/08 02:47:34;;;;;;;6.73;1.70;;;;;;;15.37;100.00;101795.69;5075104;28;20528;-70
2022/07/08 02:50:00;;;;;;;1.93;1.23;;;;;;;15.36;100.00;101802.22;5075105;28;20441;-70
2022/07/08 02:52:27;;;;;;;7.23;1.63;;;;;;;15.31;100.00;101802.34;5074940;28;20445;-70
2022/07/08 02:54:53;;;;;;;1.90;1.13;;;;;;;15.35;100.00;101803.34;5074899;28;20576;-70
2022/07/08 02:57:20;;;;;;;5.23;1.57;;;;;;;15.38;100.00;101809.00;5075026;28;20437;-69
2022/07/08 02:59:46;;;;;;;2.93;1.70;;;;;;;15.39;100.00;101810.63;5074609;28;20959;-70
2022/07/08 03:02:13;;;;;;;6.57;1.80;;;;;;;15.41;100.00;101815.81;5073985;28;20546;-70
2022/07/08 03:04:41;;;;;;;5.43;2.00;;;;;;;15.45;100.00;101814.09;5074686;28;20887;-70
2022/07/08 03:07:08;;;;;;;6.27;1.80;;;;;;;15.56;100.00;101820.13;5074278;28;20483;-70
2022/07/08 03:09:35;;;;;;;3.47;1.53;;;;;;;15.56;100.00;101807.28;5074377;28;20528;-69
2022/07/08 03:12:01;;;;;;;3.40;1.80;;;;;;;15.46;100.00;101828.53;5074172;28;20818;-68
2022/07/08 03:14:28;;;;;;;8.10;2.23;;;;;;;15.45;100.00;101840.56;5074341;28;20587;-68
2022/07/08 03:16:54;;;;;;;4.83;1.53;;;;;;;15.54;100.00;101830.56;5074455;28;20444;-68
2022/07/08 03:19:21;;;;;;;5.13;1.50;;;;;;;15.48;100.00;101823.56;5074127;28;20867;-68
2022/07/08 03:21:49;;;;;;;8.20;1.67;;;;;;;15.51;100.00;101840.16;5074250;28;20535;-69
2022/07/08 03:24:16;;;;;;;2.80;1.20;;;;;;;15.56;100.00;101842.00;5074214;28;20548;-68
2022/07/08 03:26:42;;;;;;;4.77;1.70;;;;;;;15.59;100.00;101841.41;5073958;28;20473;-68
2022/07/08 03:29:09;;;;;;;3.77;1.70;;;;;;;15.59;100.00;101836.75;5074057;28;20981;-69
2022/07/08 03:31:36;;;;;;;4.40;1.60;;;;;;;15.56;100.00;101845.53;5073951;28;21000;-68
2022/07/08 03:34:02;;;;;;;3.20;1.20;;;;;;;15.62;100.00;101846.22;5073695;28;20870;-70
2022/07/08 03:36:29;;;;;;;3.57;1.67;;;;;;;15.60;100.00;101851.19;5074218;28;20483;-68
2022/07/08 03:38:57;;;;;;;4.83;2.23;;;;;;;15.67;100.00;101857.09;5073788;28;20449;-68
2022/07/08 03:41:23;;;;;;;1.77;1.10;;;;;;;15.73;100.00;101864.06;5074085;28;20463;-69
2022/07/08 03:43:51;;;;;;;11.53;1.70;;;;;;;15.73;100.00;101864.06;5073957;28;21040;-69
2022/07/08 03:46:18;;;;;;;5.40;1.77;;;;;;;15.76;100.00;101868.94;5073880;28;20349;-68
2022/07/08 03:48:45;;;;;;;5.87;1.57;;;;;;;15.79;100.00;101878.44;5073859;28;20481;-70
2022/07/08 03:51:11;;;;;;;19.80;2.17;;;;;;;15.79;100.00;101875.69;5073682;28;20470;-69
2022/07/08 03:53:38;;;;;;;1.77;1.17;;;;;;;15.80;99.92;101886.31;5073286;28;20584;-68
2022/07/08 03:56:07;;;;;;;1.63;1.00;;;;;;;15.81;100.00;101887.16;5073450;28;20524;-69
2022/07/08 03:58:35;;;;;;;2.37;1.60;;;;;;;15.91;99.23;101891.59;5073752;28;20883;-69
2022/07/08 04:01:02;;;;;;;2.67;1.30;;;;;;;15.89;99.40;101891.88;5073696;28;20541;-70
2022/07/08 04:03:29;;;;;;;9.93;2.13;;;;;;;15.91;99.20;101891.59;5073346;28;21038;-69
2022/07/08 04:05:56;;;;;;;4.20;1.27;;;;;;;15.84;100.00;101900.19;5073632;28;20536;-69
2022/07/08 04:08:23;;;;;;;4.57;1.53;;;;;;;15.86;99.43;101898.78;5073344;28;20897;-69
2022/07/08 04:10:49;;;;;;;4.20;1.57;;;;;;;15.87;99.89;101899.59;5073625;28;20448;-69
2022/07/08 04:13:17;;;;;;;2.60;1.63;;;;;;;15.87;100.00;101897.66;5073266;28;20536;-68
2022/07/08 04:15:44;;;;;;;3.30;2.07;;;;;;;15.88;100.00;101893.81;5073192;28;20520;-68
2022/07/08 04:18:10;;;;;;;6.53;1.43;;;;;;;15.82;99.88;101895.03;5073165;28;20452;-69
2022/07/08 04:20:37;;;;;;;4.00;1.53;;;;;;;15.90;99.50;101901.72;5073543;28;20543;-68
2022/07/08 04:23:04;;;;;;;6.70;1.63;;;;;;;15.93;99.37;101908.47;5073308;28;20497;-69
2022/07/08 04:25:30;;;;;;;3.80;1.43;;;;;;;15.98;99.62;101908.38;5073345;28;20536;-68
2022/07/08 04:27:57;;;;;;;3.17;1.23;;;;;;;16.01;99.29;101913.22;5073406;28;20516;-68
2022/07/08 04:30:26;;;;;;;18.53;2.03;;;;;;;15.97;99.29;101912.22;5073325;28;20484;-68
2022/07/08 04:32:52;;;;;;;3.03;1.60;;;;;;;15.98;99.45;101919.31;5072791;28;20988;-68
2022/07/08 04:35:19;;;;;;;5.30;1.60;;;;;;;16.00;98.88;101923.38;5099009;22;20484;-71
2022/07/08 04:37:46;;;;;;;5.03;1.97;;;;;;;16.00;98.63;101928.81;5073233;28;20486;-70
2022/07/08 04:40:13;;;;;;;4.07;1.57;;;;;;;16.00;97.86;101933.50;5072975;28;20441;-71
2022/07/08 04:42:39;;;;;;;6.13;2.10;;;;;;;15.93;98.07;101936.63;5072907;28;20532;-74
2022/07/08 04:45:07;;;;;;;2.27;1.30;;;;;;;15.93;98.68;101935.81;5072777;28;20548;-72
2022/07/08 04:47:35;;;;;;;3.63;1.80;;;;;;;15.96;99.14;101936.00;5073330;28;20545;-70
2022/07/08 04:50:01;;;;;;;7.47;2.17;;;;;;;15.96;98.59;101944.22;5073142;28;20536;-72
2022/07/08 04:52:28;;;;;;;1.97;1.30;;;;;;;15.93;98.88;101953.00;5073113;28;20441;-70
2022/07/08 04:54:55;;;;;;;2.30;1.57;;;;;;;15.78;98.66;101951.41;5073066;28;20488;-72
2022/07/08 04:57:21;;;;;;;1.57;1.30;;;;;;;15.82;99.06;101944.22;5072657;28;20985;-73
2022/07/08 04:59:48;;;;;;;6.40;1.40;;;;;;;15.85;98.62;101949.09;5073073;28;20536;-73
2022/07/08 05:02:14;;;;;;;4.23;1.87;;;;;;;15.89;99.08;101946.53;5072920;28;20529;-74
2022/07/08 05:04:42;;;;;;;5.40;1.40;;;;;;;15.86;98.73;101947.16;5076043;28;20563;-77
2022/07/08 05:07:09;;;;;;;4.00;1.60;;;;;;;15.85;97.69;101953.75;5076913;28;20469;-72
2022/07/08 05:09:36;;;;;;;4.30;1.77;;;;;;;15.77;97.32;101965.38;5072958;28;20818;-72
2022/07/08 05:12:03;;;;;;;2.73;1.50;;;;;;;15.72;97.02;101965.47;5072960;28;20536;-73
2022/07/08 05:14:29;;;;;;;11.03;1.10;;;;;;;15.72;96.30;101966.28;5072401;28;20486;-72
2022/07/08 05:17:01;;;;;;;1.23;0.83;;;;;;;15.68;97.48;101972.66;5072502;28;21017;-72
2022/07/08 05:19:28;;;;;;;2.37;1.30;;;;;;;15.65;98.13;101971.31;5072767;28;20471;-73
2022/07/08 05:21:56;;;;;;;2.67;1.20;;;;;;;15.60;97.23;101982.31;5072591;28;20935;-72
2022/07/08 05:24:22;;;;;;;10.07;1.20;;;;;;;15.61;97.45;101981.19;5072364;28;20502;-72
2022/07/08 05:26:49;;;;;;;12.17;1.37;;;;;;;15.45;96.77;101982.56;5075028;28;20457;-73
2022/07/08 05:29:16;;;;;;;3.63;1.47;;;;;;;15.42;97.70;101988.63;5076551;28;20532;-73
2022/07/08 05:31:43;;;;;;;2.40;1.57;;;;;;;15.31;98.84;101988.78;5076461;28;20535;-71
2022/07/08 05:34:10;;;;;;;1.83;1.17;;;;;;;15.32;99.00;101979.50;5075831;28;20572;-73
2022/07/08 05:36:36;;;;;;;2.07;1.27;;;;;;;15.36;98.19;101985.16;5076404;28;20461;-72
2022/07/08 05:39:04;;;;;;;6.97;1.93;;;;;;;15.46;97.95;101984.19;5076082;28;20532;-73
2022/07/08 05:41:31;;;;;;;4.90;1.97;;;;;;;15.46;98.54;101981.47;5076031;28;20934;-72
2022/07/08 05:43:57;;;;;;;4.00;1.80;;;;;;;15.36;97.92;101990.63;5076334;28;20803;-72
2022/07/08 05:46:24;;;;;;;3.07;1.77;;;;;;;15.43;97.40;102001.16;5076584;28;20524;-76
2022/07/08 05:48:51;;;;;;;6.17;1.40;;;;;;;15.51;97.42;101998.56;5076127;28;20989;-69
2022/07/08 05:51:17;;;;;;;3.90;1.17;;;;;;;15.55;97.04;101994.13;5075870;28;20943;-74
2022/07/08 05:53:44;;;;;;;2.80;1.67;;;;;;;15.55;96.49;101993.31;5075801;28;20893;-75
2022/07/08 05:56:12;;;;;;;5.63;1.20;;;;;;;15.62;96.51;101994.53;5076224;28;20528;-74
2022/07/08 05:58:39;;;;;;;2.77;1.60;;;;;;;15.71;95.83;101993.88;5076247;28;20476;-74
2022/07/08 06:01:05;;;;;;;3.90;1.60;;;;;;;15.74;95.93;102001.47;5075676;28;20485;-75
2022/07/08 06:03:32;;;;;;;4.13;1.87;;;;;;;15.71;95.55;102000.16;5075635;28;20484;-73
2022/07/08 06:05:59;;;;;;;7.83;1.80;;;;;;;15.71;96.34;102002.88;5075840;28;20456;-73
2022/07/08 06:08:25;;;;;;;2.23;1.13;;;;;;;15.80;95.85;102009.25;5075615;28;20473;-73
2022/07/08 06:10:52;;;;;;;11.43;1.63;;;;;;;15.75;95.39;102014.03;5075792;28;20468;-74
2022/07/08 06:13:20;;;;;;;1.40;0.90;;;;;;;15.82;95.42;102026.19;5075715;28;20532;-73
2022/07/08 06:15:48;;;;;;;3.77;1.57;;;;;;;15.86;94.83;102042.78;5075593;28;20481;-74
2022/07/08 06:18:14;;;;;;;2.70;1.60;;;;;;;15.78;95.01;102038.81;5075686;28;20499;-74
2022/07/08 06:20:41;;;;;;;3.33;1.83;;;;;;;15.82;95.05;102031.66;5075420;28;20961;-74
2022/07/08 06:23:07;;;;;;;2.00;1.30;;;;;;;15.86;94.22;102042.78;5075318;28;20481;-74
2022/07/08 06:25:35;;;;;;;2.57;1.43;;;;;;;15.82;94.84;102039.03;5075493;28;20862;-74
2022/07/08 06:28:02;;;;;;;6.10;1.50;;;;;;;15.79;94.51;102034.16;5075509;28;20453;-76
2022/07/08 06:30:30;;;;;;;3.10;1.33;;;;;;;15.75;94.64;102047.63;5075495;28;20445;-73
2022/07/08 06:32:59;;;;;;;3.53;1.63;;;;;;;15.74;94.71;102058.84;5075472;28;20476;-74
2022/07/08 06:35:26;;;;;;;3.93;1.10;;;;;;;15.61;95.50;102057.66;5074913;28;20995;-75
2022/07/08 06:37:53;;;;;;;4.63;1.63;;;;;;;15.66;95.51;102060.34;5073860;28;20520;-75
2022/07/08 06:40:21;;;;;;;3.37;1.47;;;;;;;15.72;94.79;102063.81;5075364;28;20441;-74
2022/07/08 06:42:48;;;;;;;3.93;1.43;;;;;;;15.71;94.32;102060.25;5075320;28;20450;-75
2022/07/08 06:45:15;;;;;;;3.50;1.80;;;;;;;15.68;94.37;102065.53;5075656;28;20461;-74
2022/07/08 06:47:43;;;;;;;6.73;2.07;;;;;;;15.57;94.41;102073.03;5074794;28;20890;-75
2022/07/08 06:50:10;;;;;;;6.67;2.00;;;;;;;15.42;94.87;102074.09;5075138;28;20473;-75
2022/07/08 06:52:37;;;;;;;7.87;1.53;;;;;;;15.44;93.81;102074.59;5074927;28;20473;-75
2022/07/08 06:55:05;;;;;;;5.03;1.77;;;;;;;15.54;93.37;102085.38;5074879;28;20489;-74
2022/07/08 06:57:31;;;;;;;2.17;1.20;;;;;;;15.61;92.54;102068.59;5074885;28;20473;-74
2022/07/08 06:59:58;;;;;;;3.03;1.47;;;;;;;15.60;92.12;102073.25;5074988;28;20528;-75
2022/07/08 07:02:24;;;;;;;1.93;1.20;;;;;;;15.68;92.51;102065.53;5074530;28;20954;-74
2022/07/08 07:04:53;;;;;;;8.00;1.73;;;;;;;15.72;92.51;102067.34;5072982;28;20564;-74
2022/07/08 07:07:19;;;;;;;2.73;1.27;;;;;;;15.77;92.19;102066.47;5074793;28;20444;-74
2022/07/08 07:09:46;;;;;;;6.67;1.60;;;;;;;15.83;91.12;102059.78;5074662;28;20433;-74
2022/07/08 07:12:13;;;;;;;2.03;1.10;;;;;;;15.92;90.17;102062.63;5074662;28;20478;-74
2022/07/08 07:14:39;;;;;;;5.40;1.40;;;;;;;15.92;90.07;102068.09;5074069;28;20576;-74
2022/07/08 07:17:06;;;;;;;0.97;0.80;;;;;;;15.97;90.08;102065.28;5074239;28;20453;-75
2022/07/08 07:19:32;;;;;;;3.43;1.13;;;;;;;16.02;89.96;102073.38;5074575;28;20441;-74
2022/07/08 07:22:01;;;;;;;16.70;2.27;;;;;;;16.06;88.58;102068.94;5074413;28;20495;-74
2022/07/08 07:24:28;;;;;;;2.40;1.13;;;;;;;16.22;88.94;102067.53;5074303;28;20609;-74
2022/07/08 07:26:54;;;;;;;1.83;1.10;;;;;;;16.33;88.22;102074.41;5073932;28;20449;-75
2022/07/08 07:29:21;;;;;;;1.17;1.00;;;;;;;16.36;87.37;102079.28;5074247;28;20480;-73
2022/07/08 07:31:48;;;;;;;2.40;1.40;;;;;;;16.36;86.59;102076.56;5074219;28;20477;-71
2022/07/08 07:34:15;;;;;;;2.43;0.97;;;;;;;16.49;86.27;102082.34;5073612;28;20516;-74
2022/07/08 07:36:41;;;;;;;3.27;1.20;;;;;;;16.56;87.32;102088.22;5073890;28;20783;-74
2022/07/08 07:39:09;;;;;;;6.73;1.23;;;;;;;16.55;83.77;102081.91;5074290;28;20859;-71
2022/07/08 07:41:36;;;;;;;4.03;1.60;;;;;;;16.55;83.72;102089.31;5074066;28;20457;-70
2022/07/08 07:44:03;;;;;;;2.53;1.03;;;;;;;16.57;84.02;102096.13;5073670;28;20472;-75
2022/07/08 07:46:29;;;;;;;4.00;1.57;;;;;;;16.51;82.83;102099.25;5073657;28;20520;-74
2022/07/08 07:48:56;;;;;;;7.37;1.83;;;;;;;16.63;83.16;102099.56;5073529;28;20520;-74
2022/07/08 07:51:23;;;;;;;3.07;1.23;;;;;;;16.72;83.08;102091.44;5073701;28;20803;-75
2022/07/08 07:53:50;;;;;;;3.90;1.40;;;;;;;16.81;82.41;102095.91;5073451;28;20472;-75
2022/07/08 07:56:18;;;;;;;6.70;1.17;;;;;;;16.92;82.38;102092.97;5073707;28;20583;-74
2022/07/08 07:58:44;;;;;;;6.07;1.30;;;;;;;17.02;80.46;102084.53;5073403;28;21002;-71
2022/07/08 08:01:11;;;;;;;3.80;1.27;;;;;;;17.16;81.25;102090.78;5073400;28;21006;-71
2022/07/08 08:03:38;;;;;;;4.83;1.07;;;;;;;17.16;79.33;102096.25;5073653;28;20541;-72
2022/07/08 08:06:05;;;;;;;3.47;1.30;;;;;;;17.23;79.12;102087.63;5073200;28;20449;-71
2022/07/08 08:08:33;;;;;;;5.13;0.90;;;;;;;17.35;79.19;102094.19;5073580;28;20445;-71
2022/07/08 08:11:00;;;;;;;4.57;1.17;;;;;;;17.45;77.93;102086.84;5073559;28;20528;-71
2022/07/08 08:13:28;;;;;;;2.40;1.10;;;;;;;17.56;76.56;102082.72;5073480;28;20477;-71
2022/07/08 08:15:54;;;;;;;4.50;1.20;;;;;;;17.55;77.13;102097.56;5073372;28;20569;-71
2022/07/08 08:18:21;;;;;;;3.03;0.87;;;;;;;17.65;75.38;102097.28;5073331;28;20445;-73
2022/07/08 08:20:48;;;;;;;5.23;1.00;;;;;;;17.55;74.55;102100.28;5073154;28;20528;-72
2022/07/08 08:23:14;;;;;;;1.73;0.80;;;;;;;17.58;74.99;102102.44;5073452;28;20870;-72
2022/07/08 08:25:42;;;;;;;12.97;1.07;;;;;;;17.51;74.69;102113.00;5073056;28;20986;-71
2022/07/08 08:28:09;;;;;;;0.83;0.60;;;;;;;17.30;76.30;102110.72;5073195;28;20962;-73
2022/07/08 08:30:37;;;;;;;1.20;0.80;;;;;;;17.42;76.29;102110.19;5073401;28;20465;-69
2022/07/08 08:33:04;;;;;;;2.70;1.00;;;;;;;17.51;75.12;102107.50;5073317;28;20487;-75
2022/07/08 08:35:30;;;;;;;3.07;1.30;;;;;;;17.28;75.41;102106.69;5072861;28;20572;-75
2022/07/08 08:37:57;;;;;;;2.90;1.00;;;;;;;17.34;76.21;102092.53;5073172;28;20473;-75
2022/07/08 08:40:25;;;;;;;4.10;1.07;;;;;;;17.49;76.99;102101.56;5073126;28;20502;-74
2022/07/08 08:42:52;;;;;;;1.27;0.90;;;;;;;17.65;76.69;102103.59;5073230;28;20484;-74
2022/07/08 08:45:18;;;;;;;2.40;0.90;;;;;;;17.61;74.26;102102.59;5073120;28;20460;-71
2022/07/08 08:47:48;;;;;;;1.87;1.13;;;;;;;17.61;75.21;102112.75;5073128;28;20473;-71
2022/07/08 08:53:02;;;;;;;3.17;0.90;;;;;;;17.38;75.96;102126.44;5073070;28;20467;-71
2022/07/08 08:55:31;;;;;;;2.10;0.97;;;;;;;17.28;76.38;102125.84;5072940;28;20488;-71
2022/07/08 08:57:59;;;;;;;1.87;0.97;;;;;;;17.23;76.51;102129.53;5073256;28;20483;-71
2022/07/08 09:00:27;;;;;;;5.17;1.20;;;;;;;17.21;76.34;102136.41;5073479;28;20872;-71
2022/07/08 09:02:56;;;;;;;2.60;1.20;;;;;;;17.21;77.38;102139.97;5077223;28;20482;-73
2022/07/08 09:05:24;;;;;;;6.57;1.10;;;;;;;17.24;77.65;102149.50;5077043;28;20485;-74
2022/07/08 09:07:51;;;;;;;2.03;0.93;;;;;;;17.18;77.62;102140.59;5077051;28;20480;-75
2022/07/08 09:10:18;;;;;;;2.83;1.20;;;;;;;17.29;76.35;102141.97;5076986;28;20435;-74
2022/07/08 09:13:01;;;;;;;3.50;1.13;;;;;;;17.35;75.48;102131.72;5076758;28;20981;-73
2022/07/08 09:15:32;;;;;;;6.20;0.77;;;;;;;17.33;75.63;102128.47;5076396;28;20484;-73
2022/07/08 09:18:02;;;;;;;4.27;1.43;;;;;;;17.38;75.39;102125.63;5076687;28;20532;-73
2022/07/08 09:20:43;;;;;;;5.00;0.90;;;;;;;17.42;75.17;102126.63;5076801;28;20459;-72
2022/07/08 09:23:12;;;;;;;1.30;0.70;;;;;;;17.45;75.49;102128.75;5076802;28;20425;-71
2022/07/08 09:25:39;;;;;;;4.87;1.03;;;;;;;17.52;74.32;102131.03;5076222;28;20457;-72
2022/07/08 09:28:05;;;;;;;1.30;0.67;;;;;;;17.57;75.81;102134.47;5076649;28;20441;-72
2022/07/08 09:30:32;;;;;;;5.03;0.93;;;;;;;17.52;75.01;102131.84;5076528;28;20540;-71
2022/07/08 09:33:01;;;;;;;2.53;1.10;;;;;;;17.60;75.93;102130.31;5076283;28;20513;-71
2022/07/08 09:35:33;;;;;;;1.43;0.90;;;;;;;17.67;74.59;102127.97;5076114;28;20521;-72
2022/07/08 09:38:04;;;;;;;1.13;0.80;;;;;;;17.70;75.50;102137.47;5076226;28;20449;-71
2022/07/08 09:40:31;;;;;;;4.07;1.00;;;;;;;17.68;76.09;102140.53;5076128;28;20461;-71
2022/07/08 09:43:01;;;;;;;1.50;0.67;;;;;;;17.70;75.87;102132.78;5076361;28;20445;-71
2022/07/08 09:45:32;;;;;;;1.07;0.73;;;;;;;17.86;76.03;102141.50;5076188;28;20460;-72
2022/07/08 09:48:04;;;;;;;3.57;1.00;;;;;;;18.00;74.05;102135.94;5075831;28;20474;-72
2022/07/08 09:50:36;;;;;;;1.30;0.90;;;;;;;18.03;73.71;102130.66;5075855;28;20446;-71
2022/07/08 09:53:12;;;;;;;3.60;1.00;;;;;;;18.25;72.68;102124.31;5075843;28;20923;-72
2022/07/08 09:55:40;;;;;;;7.20;1.17;;;;;;;18.30;72.51;102129.66;5075988;28;20481;-71
2022/07/08 09:58:07;;;;;;;9.50;1.53;;;;;;;18.36;71.88;102130.31;5075929;28;20429;-71
2022/07/08 10:00:34;;;;;;;3.27;1.30;;;;;;;18.37;72.39;102137.41;5076037;28;20479;-72
2022/07/08 10:03:04;;;;;;;8.30;1.40;;;;;;;18.44;71.97;102150.69;5076068;28;20882;-71
2022/07/08 10:05:31;;;;;;;1.47;0.90;;;;;;;18.50;72.26;102139.25;5076062;28;20461;-71
2022/07/08 10:07:58;;;;;;;1.80;0.93;;;;;;;18.66;72.77;102140.47;5075577;28;20452;-72
2022/07/08 10:10:25;;;;;;;2.60;1.30;;;;;;;18.62;69.52;102142.22;5075511;28;20525;-71
2022/07/08 10:12:54;;;;;;;5.03;0.90;;;;;;;18.65;69.06;102140.78;5075706;28;20527;-73
2022/07/08 10:15:22;;;;;;;3.93;1.37;;;;;;;18.80;69.43;102159.59;5075538;28;21011;-71
2022/07/08 10:17:51;;;;;;;5.67;1.27;;;;;;;19.07;68.79;102158.53;5076284;28;20524;-73
2022/07/08 10:20:22;;;;;;;2.30;1.30;;;;;;;19.15;67.61;102154.19;5075675;28;20483;-72
2022/07/08 10:22:52;;;;;;;0.80;0.60;;;;;;;19.31;67.69;102147.09;5075365;28;20951;-72
2022/07/08 10:25:21;;;;;;;0.80;0.63;;;;;;;19.56;67.47;102158.41;5075591;28;20489;-72
2022/07/08 10:27:47;;;;;;;1.43;0.97;;;;;;;19.66;65.85;102144.41;5075593;28;20532;-70
2022/07/08 10:30:15;;;;;;;4.20;1.30;;;;;;;19.79;65.56;102143.41;5075102;28;20448;-67
2022/07/08 10:32:45;;;;;;;2.90;0.77;;;;;;;19.74;64.27;102131.75;5075129;28;20502;-73
2022/07/08 10:37:51;;;;;;;0.90;0.60;;;;;;;19.81;61.23;102132.88;5113381;28;20475;-74
2022/07/08 10:40:52;;;;;;;2.70;0.70;;;;;;;19.81;61.65;102124.63;5115995;28;20507;-74
2022/07/08 10:43:23;;;;;;;4.60;1.10;;;;;;;19.97;61.88;102126.88;5115565;28;20522;-74
2022/07/08 10:46:12;;;;;;;8.70;1.10;;;;;;;19.99;60.01;102122.66;5101420;28;20462;-72
2022/07/08 10:48:49;;;;;;;1.07;0.60;;;;;;;19.94;60.40;102136.59;5095444;28;20427;-73
2022/07/08 10:51:57;;;;;;;0.83;0.60;;;;;;;19.92;60.76;102127.84;5095239;28;20579;-73
2022/07/08 10:54:32;;;;;;;1.33;0.80;;;;;;;20.05;60.32;102128.78;5094874;28;20793;-73
2022/07/08 10:57:01;;;;;;;0.80;0.53;;;;;;;20.08;60.38;102123.44;5095419;28;20634;-74
2022/07/08 10:59:29;;;;;;;0.87;0.53;;;;;;;20.19;61.02;102131.31;5094836;28;20948;-74
2022/07/08 11:01:57;;;;;;;1.20;0.70;;;;;;;20.31;58.73;102132.25;5094815;28;20519;-73
2022/07/08 11:04:31;;;;;;;4.00;0.73;;;;;;;20.30;58.10;102127.09;5095259;28;20475;-76
2022/07/08 11:07:24;;;;;;;1.20;0.90;;;;;;;20.48;58.85;102131.41;5094967;28;20431;-78
2022/07/08 11:09:54;;;;;;;0.80;0.60;;;;;;;20.27;58.91;102117.53;5095104;28;20433;-74
2022/07/08 11:12:24;;;;;;;3.83;0.73;;;;;;;20.29;59.50;102123.53;5094967;28;20444;-73
2022/07/08 11:14:52;;;;;;;1.20;0.67;;;;;;;20.41;59.25;102120.91;5094536;28;20524;-75
2022/07/08 11:17:20;;;;;;;0.80;0.73;;;;;;;20.57;57.06;102118.41;5094745;28;20567;-73
2022/07/08 11:19:48;;;;;;;1.33;0.83;;;;;;;20.69;57.14;102123.22;5094716;28;20527;-73
2022/07/08 11:22:15;;;;;;;1.30;0.40;;;;;;;20.83;55.82;102125.75;5094455;28;20531;-73
2022/07/08 11:24:44;;;;;;;1.57;0.67;;;;;;;21.05;53.31;102122.69;5093963;28;20559;-73
2022/07/08 11:27:12;;;;;;;3.83;0.50;;;;;;;21.42;53.08;102128.44;5094308;28;20888;-73
2022/07/08 11:29:49;;;;;;;0.93;0.50;;;;;;;22.08;51.61;102116.59;5094688;28;20527;-74
2022/07/08 11:32:17;;;;;;;1.57;0.60;;;;;;;22.39;51.64;102121.59;5094676;28;20435;-74
2022/07/08 11:34:44;;;;;;;2.90;0.80;;;;;;;22.64;50.92;102122.44;5094395;28;20471;-72